Time;durP1;ratioP1;P1;durP2;ratioP2;P2;SDS_P1;SDS_P2;PMS_P1;PMS_P2;Temp;Humidity;BMP_temperature;BMP_pressure;BME280_temperature;BME280_humidity;BME280_pressure;Samples;Min_cycle;Max_cycle;Signal;HPM_P1;HPM_P2
2022/07/21 00:00:58;;;;;;;;;13.00;12.75;;;;;28.69;37.75;99071.22;6091919;28;97063;-60
2022/07/21 00:04:03;;;;;;;;;13.20;12.20;;;;;28.79;37.56;99073.63;6091853;28;97561;-60
2022/07/21 00:07:07;;;;;;;;;12.20;12.20;;;;;28.89;37.59;99079.94;6090121;28;98382;-61
2022/07/21 00:10:11;;;;;;;;;11.80;11.80;;;;;29.00;37.46;99090.31;6091542;28;96945;-60
2022/07/21 00:13:14;;;;;;;;;13.00;12.00;;;;;29.10;36.91;99073.25;6090455;28;97459;-59
2022/07/21 00:16:17;;;;;;;;;16.00;15.00;;;;;29.18;37.06;99077.09;6077752;28;97522;-55
2022/07/21 00:19:28;;;;;;;;;18.00;17.00;;;;;29.18;37.41;99072.34;6091252;28;97439;-56
2022/07/21 00:22:31;;;;;;;;;16.00;15.00;;;;;29.18;37.30;99068.75;6091758;28;97358;-56
2022/07/21 00:25:34;;;;;;;;;13.60;13.40;;;;;29.18;37.44;99074.31;6091063;28;97324;-59
2022/07/21 00:28:38;;;;;;;;;15.80;14.80;;;;;29.21;37.02;99081.97;6090918;28;96526;-56
2022/07/21 00:31:41;;;;;;;;;13.40;12.80;;;;;29.22;37.40;99072.50;6091219;28;97249;-58
2022/07/21 00:34:46;;;;;;;;;16.00;14.00;;;;;29.23;37.21;99069.34;6092113;28;98044;-63
2022/07/21 00:37:49;;;;;;;;;17.00;16.00;;;;;29.21;37.36;99065.31;6090009;28;98570;-54
2022/07/21 00:40:54;;;;;;;;;12.20;12.00;;;;;29.19;37.18;99068.41;6091203;28;97278;-54
2022/07/21 00:43:58;;;;;;;;;15.00;15.00;;;;;29.16;36.92;99069.09;6090447;28;96863;-60
2022/07/21 00:47:01;;;;;;;;;18.00;17.00;;;;;29.07;37.07;99073.94;6091622;28;96902;-64
2022/07/21 00:50:09;;;;;;;;;19.00;16.00;;;;;28.96;37.81;99069.09;6091713;28;97387;-65
2022/07/21 00:53:12;;;;;;;;;18.00;16.25;;;;;28.83;37.94;99077.34;6091059;28;96500;-63
2022/07/21 00:56:17;;;;;;;;;17.00;15.80;;;;;28.73;38.19;99076.97;6090413;28;97275;-60
2022/07/21 00:59:21;;;;;;;;;16.40;16.00;;;;;28.62;38.19;99079.28;6091151;28;96644;-59
2022/07/21 01:02:26;;;;;;;;;17.00;16.40;;;;;28.30;38.66;99058.56;6085018;28;97458;-59
2022/07/21 01:05:31;;;;;;;;;18.80;17.40;;;;;28.41;39.36;99075.63;6090645;28;96752;-62
2022/07/21 01:08:34;;;;;;;;;20.00;17.00;;;;;28.33;39.58;99077.31;6090285;28;97458;-59
2022/07/21 01:11:39;;;;;;;;;16.40;14.60;;;;;28.22;39.88;99078.03;6070322;28;97431;-57
2022/07/21 01:14:43;;;;;;;;;18.40;16.40;;;;;28.11;40.14;99082.28;6090366;28;96873;-59
2022/07/21 01:17:47;;;;;;;;;15.60;15.00;;;;;28.00;40.42;99077.09;6090686;28;96652;-57
2022/07/21 01:20:54;;;;;;;;;17.00;15.00;;;;;27.90;40.21;99074.72;6086431;28;97800;-60
2022/07/21 01:24:00;;;;;;;;;18.40;17.00;;;;;27.81;41.08;99078.63;6087688;28;97441;-60
2022/07/21 01:27:04;;;;;;;;;18.00;17.00;;;;;27.70;41.31;99077.38;6089977;28;97595;-59
2022/07/21 01:30:09;;;;;;;;;18.00;17.75;;;;;27.61;41.41;99082.13;6090452;28;96467;-59
2022/07/21 01:33:13;;;;;;;;;17.60;16.00;;;;;27.50;41.77;99082.47;6090839;28;96440;-61
2022/07/21 01:36:17;;;;;;;;;17.60;16.60;;;;;27.41;41.89;99092.72;6090008;28;97414;-60
2022/07/21 01:42:43;;;;;;;;;17.00;16.00;;;;;27.29;42.00;99091.72;6090669;28;96431;-60
2022/07/21 01:45:46;;;;;;;;;17.40;16.40;;;;;27.23;42.12;99093.03;6090447;28;97124;-60
2022/07/21 01:48:50;;;;;;;;;16.60;16.00;;;;;27.17;42.30;99083.28;6090238;28;96689;-58
2022/07/21 01:51:54;;;;;;;;;16.50;14.50;;;;;27.11;42.68;99086.22;6072655;28;96875;-58
2022/07/21 01:54:59;;;;;;;;;16.00;15.60;;;;;27.04;42.44;99083.09;6088938;28;97586;-59
2022/07/21 01:58:02;;;;;;;;;16.60;14.60;;;;;26.98;42.33;99080.81;6090025;28;97858;-58
2022/07/21 02:01:06;;;;;;;;;15.40;15.00;;;;;26.92;42.88;99076.59;6090113;28;97596;-64
2022/07/21 02:04:10;;;;;;;;;16.40;16.00;;;;;26.87;42.72;99076.75;6093066;28;96474;-60
2022/07/21 02:07:13;;;;;;;;;19.40;17.00;;;;;26.81;42.97;99078.00;6094180;28;96988;-60
2022/07/21 02:10:18;;;;;;;;;11.80;11.00;;;;;26.96;41.83;99085.88;6093080;28;96713;-61
2022/07/21 02:13:21;;;;;;;;;12.00;12.00;;;;;27.23;41.58;99093.84;6093653;28;97541;-59
2022/07/21 02:16:25;;;;;;;;;14.00;12.40;;;;;27.55;41.14;99096.13;6093832;28;96829;-60
2022/07/21 02:19:28;;;;;;;;;12.80;12.00;;;;;27.79;40.88;99092.81;6090856;28;99593;-60
2022/07/21 02:22:32;;;;;;;;;17.60;16.60;;;;;27.95;40.51;99093.13;6091767;28;98218;-55
2022/07/21 02:25:38;;;;;;;;;14.00;13.00;;;;;27.93;40.41;99090.66;6089638;28;97482;-57
2022/07/21 02:28:41;;;;;;;;;19.00;17.00;;;;;27.90;40.67;99082.22;6089228;28;96683;-59
2022/07/21 02:31:44;;;;;;;;;19.00;17.60;;;;;27.88;40.90;99071.44;6092719;28;97683;-58
2022/07/21 02:34:47;;;;;;;;;17.60;17.00;;;;;27.80;40.73;99071.47;6093916;28;97515;-57
2022/07/21 02:37:51;;;;;;;;;16.80;16.80;;;;;27.71;40.86;99070.69;6092884;28;96481;-58
2022/07/21 02:40:56;;;;;;;;;12.25;11.25;;;;;27.73;40.98;99076.69;6092704;28;97435;-60
2022/07/21 02:44:00;;;;;;;;;11.20;11.20;;;;;27.90;40.08;99079.44;6092886;28;97539;-59
2022/07/21 02:47:03;;;;;;;;;12.75;11.75;;;;;28.06;40.34;99068.59;6093834;28;96466;-61
2022/07/21 02:50:07;;;;;;;;;13.60;12.60;;;;;28.19;40.14;99068.44;6094367;28;97024;-56
2022/07/21 02:53:12;;;;;;;;;14.60;14.60;;;;;28.28;39.85;99066.41;6092689;28;97145;-55
2022/07/21 02:56:20;;;;;;;;;16.00;15.00;;;;;28.34;39.58;99067.88;6093347;28;96997;-60
2022/07/21 02:59:23;;;;;;;;;10.00;9.50;;;;;28.46;39.77;99069.09;6090685;28;97822;-59
2022/07/21 03:02:26;;;;;;;;;13.40;12.40;;;;;28.57;39.54;99062.81;6088768;28;96968;-59
2022/07/21 03:05:30;;;;;;;;;14.00;14.00;;;;;28.69;38.84;99065.66;6089425;28;97762;-60
2022/07/21 03:08:34;;;;;;;;;14.80;12.80;;;;;28.79;39.22;99062.53;6107214;28;96665;-60
2022/07/21 03:11:39;;;;;;;;;14.40;13.40;;;;;28.87;38.93;99063.63;6092020;28;96726;-60
2022/07/21 03:14:42;;;;;;;;;14.00;13.00;;;;;28.97;38.49;99063.22;6092227;28;96747;-59
2022/07/21 03:17:47;;;;;;;;;15.00;14.00;;;;;29.09;38.77;99065.25;6091031;28;97535;-60
2022/07/21 03:20:51;;;;;;;;;15.00;14.00;;;;;29.18;38.22;99064.00;6085802;28;96699;-59
2022/07/21 03:23:54;;;;;;;;;13.00;12.60;;;;;29.26;38.28;99056.78;6100273;28;97052;-60
2022/07/21 03:26:59;;;;;;;;;17.00;16.00;;;;;29.33;37.82;99059.81;6091083;28;97783;-60
2022/07/21 03:30:10;;;;;;;;;16.25;13.00;;;;;29.33;37.78;99059.00;6085585;28;97474;-61
2022/07/21 03:33:14;;;;;;;;;13.00;12.60;;;;;29.38;38.06;99067.13;6084262;28;98242;-61
2022/07/21 03:36:18;;;;;;;;;14.00;14.00;;;;;29.41;37.47;99070.06;6089843;28;97030;-60
2022/07/21 03:39:21;;;;;;;;;14.00;13.00;;;;;29.46;37.84;99071.81;6089236;28;97957;-60
2022/07/21 03:42:26;;;;;;;;;13.60;13.00;;;;;29.50;37.23;99067.19;6086032;28;97214;-57
2022/07/21 03:45:31;;;;;;;;;13.80;12.80;;;;;29.48;37.41;99063.94;6086006;28;97787;-58
2022/07/21 03:48:34;;;;;;;;;14.50;13.00;;;;;29.50;37.49;99068.00;6088581;28;96926;-60
2022/07/21 03:51:38;;;;;;;;;14.00;13.25;;;;;29.52;37.09;99062.09;6089943;28;97031;-59
2022/07/21 03:54:41;;;;;;;;;12.00;11.00;;;;;29.57;37.52;99068.25;6089929;28;96451;-59
2022/07/21 03:57:48;;;;;;;;;15.00;14.40;;;;;29.59;37.07;99073.47;6090340;28;97548;-60
2022/07/21 04:00:51;;;;;;;;;15.50;15.00;;;;;29.59;36.77;99076.25;6091340;28;97508;-58
2022/07/21 04:03:55;;;;;;;;;13.00;13.00;;;;;29.63;37.28;99075.22;6091882;28;96825;-61
2022/07/21 04:06:58;;;;;;;;;16.00;14.00;;;;;29.64;36.66;99067.69;6091895;28;96516;-61
2022/07/21 04:10:01;;;;;;;;;14.00;14.00;;;;;29.56;37.10;99054.72;6091446;28;96671;-61
2022/07/21 04:13:09;;;;;;;;;13.00;12.60;;;;;29.73;36.56;99065.63;6087762;28;97592;-60
2022/07/21 04:16:12;;;;;;;;;17.00;16.00;;;;;29.79;36.45;99069.00;6091902;28;97516;-62
2022/07/21 04:19:15;;;;;;;;;17.00;16.00;;;;;29.82;36.78;99066.34;6090958;28;96967;-60
2022/07/21 04:22:20;;;;;;;;;14.60;13.60;;;;;29.83;36.32;99072.72;6091932;28;96511;-62
2022/07/21 04:25:23;;;;;;;;;12.20;11.40;;;;;29.85;36.50;99075.97;6091078;28;96858;-63
2022/07/21 04:28:28;;;;;;;;;15.60;14.60;;;;;29.87;36.37;99066.13;6089753;28;98518;-61
2022/07/21 04:31:32;;;;;;;;;14.80;14.00;;;;;29.90;36.29;99079.38;6090021;28;96879;-60
2022/07/21 04:34:35;;;;;;;;;16.40;16.00;;;;;29.70;36.55;99030.19;6086501;28;97100;-60
2022/07/21 04:37:39;;;;;;;;;11.75;10.75;;;;;29.96;36.33;99069.63;6088576;28;97309;-62
2022/07/21 04:40:42;;;;;;;;;17.00;15.00;;;;;29.97;36.14;99068.47;6082228;28;97297;-56
2022/07/21 04:43:47;;;;;;;;;14.50;13.00;;;;;30.03;36.11;99069.06;6100271;28;98388;-63
2022/07/21 04:46:50;;;;;;;;;12.80;12.80;;;;;30.11;36.29;99071.75;6085952;28;97163;-59
2022/07/21 04:49:53;;;;;;;;;14.40;14.00;;;;;30.17;36.26;99077.06;6089276;28;98060;-61
2022/07/21 04:52:58;;;;;;;;;13.00;12.60;;;;;30.23;35.72;99068.16;6088353;28;97438;-60
2022/07/21 04:56:02;;;;;;;;;15.40;15.00;;;;;30.23;35.95;99078.47;6088466;28;96433;-67
2022/07/21 04:59:07;;;;;;;;;15.00;14.00;;;;;30.20;36.20;99071.66;6100107;28;98067;-60
2022/07/21 05:02:10;;;;;;;;;12.00;12.00;;;;;30.19;36.06;99072.81;6085593;28;97343;-61
2022/07/21 05:05:14;;;;;;;;;17.00;16.20;;;;;30.22;35.71;99076.84;6089354;28;98550;-61
2022/07/21 05:08:17;;;;;;;;;13.50;13.00;;;;;30.25;36.13;99076.97;6087828;28;96799;-63
2022/07/21 05:11:21;;;;;;;;;14.50;13.50;;;;;30.32;35.93;99093.91;6089110;28;97929;-61
2022/07/21 05:14:25;;;;;;;;;14.50;13.50;;;;;30.39;35.72;99091.34;6085912;28;97061;-58
2022/07/21 05:17:29;;;;;;;;;17.20;15.60;;;;;30.39;36.18;99093.31;6086252;28;97405;-62
2022/07/21 05:20:32;;;;;;;;;15.00;14.50;;;;;30.27;36.18;99090.53;6086053;28;97122;-64
2022/07/21 05:23:36;;;;;;;;;16.00;14.50;;;;;30.23;35.67;99084.03;6088296;28;96698;-61
2022/07/21 05:26:39;;;;;;;;;15.40;14.40;;;;;30.29;35.64;99079.88;6087364;28;97462;-60
2022/07/21 05:29:44;;;;;;;;;18.20;17.80;;;;;30.09;37.33;99081.59;6087954;28;97404;-57
2022/07/21 05:32:47;;;;;;;;;28.00;27.40;;;;;29.76;38.11;99084.41;6085196;28;97452;-68
2022/07/21 05:35:50;;;;;;;;;20.80;19.60;;;;;29.47;38.79;99084.56;6085382;28;97333;-55
2022/07/21 05:38:54;;;;;;;;;19.80;19.20;;;;;29.02;39.20;99070.53;6085303;28;97255;-61
2022/07/21 05:41:59;;;;;;;;;17.20;16.00;;;;;28.90;40.17;99099.03;6087421;28;97456;-61
2022/07/21 05:45:05;;;;;;;;;23.25;22.75;;;;;28.75;40.43;99094.06;6085705;28;96925;-55
2022/07/21 05:48:08;;;;;;;;;18.80;17.40;;;;;28.60;40.66;99098.22;6088660;28;97185;-60
2022/07/21 05:51:11;;;;;;;;;19.00;18.00;;;;;28.40;41.54;99110.88;6088900;28;97074;-60
2022/07/21 05:54:20;;;;;;;;;25.40;25.40;;;;;28.20;41.60;99105.28;6084396;28;97595;-58
2022/07/21 05:57:24;;;;;;;;;28.80;27.80;;;;;28.08;41.60;99088.50;6088412;28;97164;-56
2022/07/21 06:00:29;;;;;;;;;13.25;11.25;;;;;28.20;41.52;99108.06;6090127;28;97947;-57
2022/07/21 06:03:32;;;;;;;;;20.00;20.00;;;;;28.18;41.80;99099.25;6090117;28;96442;-63
2022/07/21 06:06:35;;;;;;;;;24.00;21.00;;;;;28.29;42.18;99095.78;6089938;28;97576;-61
2022/07/21 06:09:39;;;;;;;;;16.00;15.40;;;;;28.16;42.07;99060.75;6090116;28;97517;-64
2022/07/21 06:12:43;;;;;;;;;21.00;20.00;;;;;28.65;42.15;99106.34;6089812;28;97459;-61
2022/07/21 06:15:48;;;;;;;;;21.00;20.00;;;;;28.82;41.11;99102.69;6084584;28;97456;-59
2022/07/21 06:18:51;;;;;;;;;19.00;18.00;;;;;29.02;40.86;99104.66;6083027;28;98085;-64
2022/07/21 06:21:55;;;;;;;;;19.00;18.60;;;;;29.18;40.94;99094.56;6090022;28;96781;-59
2022/07/21 06:24:58;;;;;;;;;19.00;17.75;;;;;29.32;40.48;99104.63;6090017;28;97204;-62
2022/07/21 06:28:02;;;;;;;;;17.00;16.75;;;;;29.48;40.63;99100.84;6090060;28;97048;-64
2022/07/21 06:31:07;;;;;;;;;19.60;18.60;;;;;29.64;40.82;99106.59;6090527;28;97397;-66
2022/07/21 06:34:10;;;;;;;;;21.00;20.00;;;;;29.64;39.67;99106.59;6089073;28;97335;-66
2022/07/21 06:37:16;;;;;;;;;21.75;20.75;;;;;29.66;40.11;99102.31;6090043;28;96270;-64
2022/07/21 06:40:19;;;;;;;;;26.50;24.50;;;;;29.62;39.89;99106.13;6090239;28;96488;-62
2022/07/21 06:43:23;;;;;;;;;20.20;18.40;;;;;29.74;39.96;99116.47;6089467;28;97386;-62
2022/07/21 06:46:31;;;;;;;;;20.00;19.00;;;;;29.90;39.75;99111.91;6089949;28;97646;-64
2022/07/21 06:49:35;;;;;;;;;18.40;17.00;;;;;30.03;39.76;99122.72;6091003;28;96584;-65
2022/07/21 06:52:38;;;;;;;;;19.00;19.00;;;;;30.22;39.95;99115.78;6093838;28;97185;-54
2022/07/21 06:55:42;;;;;;;;;19.00;18.00;;;;;30.32;39.26;99113.38;6093408;28;96998;-62
2022/07/21 06:58:46;;;;;;;;;17.75;17.75;;;;;30.55;38.39;99114.56;6093615;28;96451;-56
2022/07/21 07:01:55;;;;;;;;;20.50;18.00;;;;;30.67;38.28;99116.53;6093817;28;97448;-64
2022/07/21 07:04:58;;;;;;;;;20.00;19.60;;;;;30.76;37.43;99122.78;6093648;28;97446;-56
2022/07/21 07:08:10;;;;;;;;;18.40;16.60;;;;;30.88;37.16;99119.19;6093352;28;97634;-67
2022/07/21 07:11:14;;;;;;;;;17.60;17.00;;;;;31.03;37.50;99123.25;6093079;28;96750;-56
2022/07/21 07:14:18;;;;;;;;;20.80;20.20;;;;;30.94;36.84;99120.53;6092697;28;97831;-58
2022/07/21 07:17:23;;;;;;;;;29.00;28.20;;;;;30.84;37.15;99121.84;6093245;28;96539;-62
2022/07/21 07:20:26;;;;;;;;;16.60;15.20;;;;;30.78;37.20;99112.13;6093040;28;96954;-56
2022/07/21 07:23:29;;;;;;;;;17.00;16.00;;;;;30.78;37.49;99131.59;6090833;28;98393;-58
2022/07/21 07:26:33;;;;;;;;;17.00;16.00;;;;;30.79;38.22;99122.06;6093228;28;98089;-57
2022/07/21 07:29:37;;;;;;;;;10.00;8.60;;;;;30.85;36.90;99123.47;6092999;28;96941;-59
2022/07/21 07:32:42;;;;;;;;;16.60;15.00;;;;;30.94;37.30;99115.78;6092926;28;97056;-59
2022/07/21 07:35:45;;;;;;;;;17.00;15.67;;;;;31.12;36.53;99113.59;6092978;28;97496;-57
2022/07/21 07:38:49;;;;;;;;;16.40;16.00;;;;;31.29;36.27;99113.31;6081258;28;96747;-60
2022/07/21 07:41:52;;;;;;;;;16.00;15.00;;;;;31.47;35.74;99124.16;6069159;28;97424;-58
2022/07/21 07:44:55;;;;;;;;;22.00;20.00;;;;;31.58;36.28;99128.88;6076594;28;96946;-57
2022/07/21 07:48:00;;;;;;;;;15.60;15.20;;;;;31.67;36.85;99135.13;6091103;28;96973;-57
2022/07/21 07:51:04;;;;;;;;;14.00;14.00;;;;;31.80;34.55;99136.69;6091944;28;97668;-55
2022/07/21 07:54:07;;;;;;;;;17.00;15.00;;;;;31.99;34.04;99141.59;6092337;28;97508;-61
2022/07/21 07:57:11;;;;;;;;;16.00;15.00;;;;;32.09;34.48;99143.84;6092806;28;97335;-58
2022/07/21 08:00:17;;;;;;;;;14.60;14.40;;;;;31.85;33.92;99084.63;6092332;28;97338;-57
2022/07/21 08:03:41;;;;;;;;;16.00;16.00;;;;;32.39;33.53;99149.03;6090331;28;96689;-60
2022/07/21 08:06:45;;;;;;;;;17.20;15.00;;;;;32.49;33.42;99151.28;6092704;28;97489;-61
2022/07/21 08:09:49;;;;;;;;;15.50;15.00;;;;;32.59;33.49;99150.75;6106886;28;97012;-64
2022/07/21 08:12:53;;;;;;;;;16.00;13.60;;;;;32.72;33.54;99162.66;6106748;28;98555;-56
2022/07/21 08:15:56;;;;;;;;;17.25;16.00;;;;;32.84;33.06;99159.75;6092084;28;97603;-60
2022/07/21 08:19:01;;;;;;;;;17.20;16.20;;;;;32.96;33.14;99145.66;6091336;28;97424;-57
2022/07/21 08:22:04;;;;;;;;;16.00;15.00;;;;;33.02;32.55;99159.00;6092101;28;97471;-60
2022/07/21 08:25:17;;;;;;;;;13.00;12.60;;;;;33.13;32.27;99152.84;6092529;28;97355;-59
2022/07/21 08:28:20;;;;;;;;;16.00;15.60;;;;;33.19;32.06;99155.00;6091912;28;97411;-63
2022/07/21 08:31:24;;;;;;;;;14.80;14.40;;;;;33.25;32.33;99149.94;6092000;28;96410;-64
2022/07/21 08:34:30;;;;;;;;;17.80;16.20;;;;;33.17;32.61;99148.97;6091552;28;96773;-62
2022/07/21 08:37:37;;;;;;;;;14.60;13.60;;;;;33.29;32.68;99148.84;6092190;28;96879;-60
2022/07/21 08:40:43;;;;;;;;;20.40;17.40;;;;;33.33;32.01;99151.72;6091425;28;96644;-57
2022/07/21 08:43:47;;;;;;;;;14.40;13.00;;;;;33.41;32.11;99142.31;6091879;28;97136;-61
2022/07/21 08:46:51;;;;;;;;;7.20;7.20;;;;;33.45;32.11;99144.00;6087245;28;97455;-59
2022/07/21 08:49:57;;;;;;;;;17.50;15.50;;;;;33.54;31.83;99146.56;6091638;28;96948;-59
2022/07/21 08:53:01;;;;;;;;;14.40;14.00;;;;;33.62;31.24;99147.53;6090824;28;96618;-55
2022/07/21 08:56:08;;;;;;;;;15.25;15.00;;;;;33.78;31.93;99134.28;6091586;28;97122;-59
2022/07/21 08:59:12;;;;;;;;;17.40;15.40;;;;;33.82;31.14;99129.56;6091886;28;97598;-62
2022/07/21 09:02:27;;;;;;;;;16.80;14.80;;;;;33.84;31.32;99122.44;6089573;28;96626;-58
2022/07/21 09:05:32;;;;;;;;;13.00;11.50;;;;;34.06;31.80;99136.84;6091540;28;96569;-57
2022/07/21 09:08:39;;;;;;;;;15.80;15.80;;;;;34.12;31.36;99129.75;6090928;28;97943;-61
2022/07/21 09:11:45;;;;;;;;;16.20;15.20;;;;;34.21;31.26;99136.72;6089801;28;97447;-60
2022/07/21 09:14:48;;;;;;;;;14.00;13.00;;;;;34.13;30.61;99123.78;6091462;28;97477;-61
2022/07/21 09:18:06;;;;;;;;;16.75;15.75;;;;;34.25;30.85;99129.25;6090370;28;96908;-59
2022/07/21 09:21:16;;;;;;;;;16.80;15.80;;;;;34.25;30.79;99123.63;6091157;28;97564;-60
2022/07/21 09:24:25;;;;;;;;;18.40;17.40;;;;;34.37;30.16;99119.81;6091102;28;97642;-57
2022/07/21 09:27:29;;;;;;;;;16.20;14.80;;;;;34.38;30.03;99117.84;6091171;28;97065;-58
2022/07/21 09:30:49;;;;;;;;;15.20;13.20;;;;;34.42;29.73;99113.09;6091047;28;97465;-64
2022/07/21 09:33:52;;;;;;;;;13.75;12.75;;;;;34.51;29.88;99113.66;6091098;28;96731;-61
2022/07/21 09:36:58;;;;;;;;;14.00;13.80;;;;;34.60;30.00;99109.41;6090763;28;97384;-63
2022/07/21 09:40:06;;;;;;;;;11.25;10.25;;;;;34.59;29.60;99115.41;6090978;28;96500;-58
2022/07/21 09:43:10;;;;;;;;;13.80;12.80;;;;;34.61;29.32;99111.03;6090172;28;97488;-61
2022/07/21 09:46:18;;;;;;;;;13.00;11.60;;;;;34.65;29.71;99109.06;6085362;28;96734;-61
2022/07/21 09:49:32;;;;;;;;;14.00;14.00;;;;;34.64;29.08;99104.69;6089716;28;97558;-56
2022/07/21 09:52:58;;;;;;;;;19.00;19.00;;;;;34.58;29.53;99116.56;6089287;28;97328;-63
2022/07/21 09:56:02;;;;;;;;;13.00;13.00;;;;;34.55;29.29;99101.31;6089299;28;97366;-64
2022/07/21 09:59:07;;;;;;;;;13.80;13.00;;;;;34.60;29.38;99100.22;6089577;28;97364;-58
2022/07/21 10:02:16;;;;;;;;;13.60;12.80;;;;;34.71;28.55;99104.81;6089947;28;97002;-60
2022/07/21 10:05:21;;;;;;;;;14.40;13.00;;;;;34.74;28.26;99115.28;6090576;28;97543;-57
2022/07/21 10:08:37;;;;;;;;;11.75;10.75;;;;;34.84;27.58;99107.41;6090171;28;96744;-63
2022/07/21 10:11:42;;;;;;;;;12.60;12.00;;;;;34.99;27.65;99112.03;6090159;28;98277;-64
2022/07/21 10:14:47;;;;;;;;;13.75;12.00;;;;;34.96;28.41;99107.16;6090187;28;96425;-65
2022/07/21 10:17:56;;;;;;;;;7.00;7.00;;;;;35.01;26.90;99110.44;6089900;28;97566;-67
2022/07/21 10:21:05;;;;;;;;;13.80;12.40;;;;;34.99;27.84;99109.22;6088350;28;97858;-56
2022/07/21 10:24:13;;;;;;;;;17.60;17.00;;;;;34.99;28.12;99106.44;6092581;28;98094;-63
2022/07/21 10:27:17;;;;;;;;;11.00;11.00;;;;;34.94;28.19;99107.56;6094515;28;97016;-60
2022/07/21 10:30:39;;;;;;;;;12.00;11.00;;;;;34.92;28.16;99109.13;6094291;28;97393;-59
2022/07/21 10:33:53;;;;;;;;;17.60;17.60;;;;;34.95;28.38;99102.75;6094383;28;97487;-59
2022/07/21 10:36:57;;;;;;;;;13.00;12.00;;;;;34.94;28.19;99110.38;6093672;28;96399;-56
2022/07/21 10:40:03;;;;;;;;;12.00;11.60;;;;;34.88;28.48;99105.47;6093834;28;96888;-55
2022/07/21 10:43:39;;;;;;;;;12.00;11.00;;;;;34.76;28.03;99098.88;6094274;28;96422;-58
2022/07/21 10:46:42;;;;;;;;;10.00;9.00;;;;;34.83;28.08;99100.19;6094421;28;96533;-58
2022/07/21 10:49:52;;;;;;;;;11.00;10.25;;;;;35.00;28.61;99099.63;6093693;28;96636;-62
2022/07/21 10:53:02;;;;;;;;;11.00;10.00;;;;;34.91;27.83;99083.09;6092651;28;96986;-64
2022/07/21 10:56:08;;;;;;;;;11.00;10.60;;;;;35.03;28.13;99091.28;6089391;28;96707;-60
2022/07/21 10:59:12;;;;;;;;;12.00;10.40;;;;;35.04;27.59;99090.06;6091624;28;97430;-61
2022/07/21 11:02:26;;;;;;;;;11.00;11.00;;;;;35.13;27.25;99079.41;6091785;28;96895;-61
2022/07/21 11:05:32;;;;;;;;;11.00;9.60;;;;;35.16;27.39;99080.63;6080806;28;97420;-65
2022/07/21 11:08:37;;;;;;;;;12.60;12.60;;;;;35.19;27.32;99080.69;6093126;28;97475;-59
2022/07/21 11:11:58;;;;;;;;;9.75;8.75;;;;;35.28;27.26;99074.00;6093499;28;96307;-58
2022/07/21 11:15:03;;;;;;;;;11.00;10.00;;;;;35.30;27.15;99075.22;6093919;28;96706;-59
2022/07/21 11:18:07;;;;;;;;;12.00;10.00;;;;;35.39;27.58;99074.94;6092500;28;97431;-59
2022/07/21 11:21:14;;;;;;;;;8.75;8.00;;;;;35.44;27.36;99080.19;6107384;28;96680;-66
2022/07/21 11:24:19;;;;;;;;;13.80;12.00;;;;;35.43;26.80;99078.59;6092176;28;96429;-59
2022/07/21 11:27:25;;;;;;;;;13.50;12.50;;;;;35.51;26.68;99078.31;6092908;28;96819;-62
2022/07/21 11:30:28;;;;;;;;;14.60;14.20;;;;;35.39;27.05;99072.13;6093564;28;96832;-62
2022/07/21 11:33:32;;;;;;;;;11.75;11.75;;;;;35.41;26.59;99073.38;6092493;28;96575;-63
2022/07/21 11:36:35;;;;;;;;;9.00;8.80;;;;;35.47;26.53;99069.03;6090638;28;97112;-53
2022/07/21 11:39:39;;;;;;;;;13.40;12.80;;;;;35.44;26.08;99071.78;6092262;28;96970;-60
2022/07/21 11:42:46;;;;;;;;;13.40;12.00;;;;;35.52;26.57;99070.69;6092874;28;97020;-66
2022/07/21 11:45:53;;;;;;;;;9.25;9.25;;;;;35.54;26.47;99066.31;6092743;28;97995;-61
2022/07/21 11:49:04;;;;;;;;;10.60;10.60;;;;;35.56;26.52;99066.75;6082035;28;97139;-61
2022/07/21 11:52:09;;;;;;;;;11.00;10.75;;;;;35.53;26.88;99061.09;6093269;28;98092;-63
2022/07/21 11:55:13;;;;;;;;;10.50;10.00;;;;;35.63;26.60;99061.19;6092612;28;97506;-62
2022/07/21 11:58:17;;;;;;;;;10.40;9.00;;;;;35.63;26.41;99063.19;6091170;28;97415;-59
2022/07/21 12:01:21;;;;;;;;;11.00;10.00;;;;;35.66;26.41;99058.84;6092367;28;96441;-64
2022/07/21 12:04:34;;;;;;;;;10.00;9.00;;;;;35.68;26.36;99062.88;6091752;28;97042;-59
2022/07/21 12:07:39;;;;;;;;;12.80;12.80;;;;;35.74;26.17;99061.34;6091672;28;97523;-62
2022/07/21 12:10:42;;;;;;;;;11.00;10.00;;;;;35.79;25.81;99061.00;6092456;28;96667;-66
2022/07/21 12:13:56;;;;;;;;;9.00;9.00;;;;;35.86;25.91;99049.84;6092496;28;96693;-59
2022/07/21 12:17:04;;;;;;;;;11.00;11.00;;;;;35.79;26.29;99046.97;6091883;28;97579;-64
2022/07/21 12:20:14;;;;;;;;;8.75;8.00;;;;;35.90;26.05;99044.25;6091360;28;97683;-62
2022/07/21 12:23:26;;;;;;;;;9.00;9.00;;;;;35.99;26.21;99045.56;6074958;28;96859;-64
2022/07/21 12:26:32;;;;;;;;;11.00;11.00;;;;;35.98;26.36;99040.31;6091681;28;98053;-62
2022/07/21 12:29:40;;;;;;;;;13.00;13.00;;;;;35.91;25.14;99043.88;6092517;28;97553;-65
2022/07/21 12:32:47;;;;;;;;;14.00;13.60;;;;;36.07;24.41;99046.41;6092090;28;96979;-65
2022/07/21 12:36:03;;;;;;;;;12.00;11.00;;;;;36.23;25.80;99032.13;6091713;28;96524;-64
2022/07/21 12:42:47;;;;;;;;;12.75;12.50;;;;;36.28;25.42;99034.59;6091786;28;97588;-59
2022/07/21 12:45:58;;;;;;;;;12.00;12.00;;;;;36.21;25.74;99038.16;6091431;28;97464;-59
2022/07/21 12:49:09;;;;;;;;;14.00;13.00;;;;;36.17;26.04;99036.50;6090963;28;96397;-60
2022/07/21 12:52:15;;;;;;;;;9.60;9.60;;;;;36.17;25.41;99031.69;6091864;28;97396;-61
2022/07/21 12:55:20;;;;;;;;;12.25;12.00;;;;;36.25;24.82;99030.56;6090453;28;97467;-57
2022/07/21 12:58:24;;;;;;;;;12.00;12.00;;;;;36.33;24.51;99034.22;6091516;28;97124;-60
2022/07/21 13:01:32;;;;;;;;;22.50;20.75;;;;;36.26;25.29;99026.56;6091372;28;96760;-66
2022/07/21 13:04:36;;;;;;;;;9.80;9.00;;;;;36.31;25.52;99023.38;6089737;28;97254;-60
2022/07/21 13:07:42;;;;;;;;;11.00;10.40;;;;;36.26;25.38;99022.97;6090456;28;96910;-62
2022/07/21 13:10:50;;;;;;;;;11.80;11.80;;;;;36.19;25.81;99022.91;6090833;28;97428;-62
2022/07/21 13:13:57;;;;;;;;;8.00;8.00;;;;;36.06;26.09;99002.72;6089335;28;96761;-61
2022/07/21 13:17:04;;;;;;;;;13.00;12.40;;;;;35.95;24.62;99013.84;6101821;28;97696;-55
2022/07/21 13:20:11;;;;;;;;;14.75;14.00;;;;;35.97;25.66;99017.06;6090323;28;97555;-57
2022/07/21 13:23:16;;;;;;;;;10.40;10.40;;;;;36.02;24.70;99011.09;6088958;28;97483;-60
2022/07/21 13:26:20;;;;;;;;;13.00;12.00;;;;;36.08;26.00;99002.31;6089023;28;96408;-62
2022/07/21 13:29:26;;;;;;;;;11.80;11.00;;;;;36.01;26.06;98998.28;6089568;28;98249;-61
2022/07/21 13:32:33;;;;;;;;;13.20;12.80;;;;;36.04;25.62;98993.88;6090020;28;97424;-60
2022/07/21 13:35:38;;;;;;;;;14.40;13.40;;;;;35.95;25.28;98994.22;6090166;28;96543;-61
2022/07/21 13:38:43;;;;;;;;;11.40;10.40;;;;;35.98;25.65;98985.00;6087830;28;97051;-59
2022/07/21 13:41:48;;;;;;;;;12.60;12.00;;;;;35.92;25.85;98983.75;6088840;28;97509;-61
2022/07/21 13:45:14;;;;;;;;;10.75;10.75;;;;;35.92;24.78;98982.97;6087820;28;97446;-57
2022/07/21 13:48:20;;;;;;;;;14.00;13.00;;;;;36.01;25.43;98984.25;6086584;28;98125;-60
2022/07/21 13:51:24;;;;;;;;;14.00;13.00;;;;;35.98;25.67;98979.41;6089227;28;96737;-61
2022/07/21 13:54:28;;;;;;;;;11.40;10.40;;;;;36.03;24.76;98984.66;6089513;28;97077;-61
2022/07/21 13:57:36;;;;;;;;;12.00;12.00;;;;;36.13;25.40;98985.94;6090396;28;97084;-60
2022/07/21 14:00:39;;;;;;;;;15.00;12.00;;;;;36.08;25.30;98985.47;6092232;28;97406;-57
2022/07/21 14:03:49;;;;;;;;;11.25;11.25;;;;;36.05;25.77;98973.03;6094316;28;97449;-60
2022/07/21 14:06:55;;;;;;;;;12.00;12.00;;;;;35.93;25.71;98973.34;6094004;28;96893;-62
2022/07/21 14:09:59;;;;;;;;;11.25;10.75;;;;;35.79;26.09;98971.22;6091752;28;98539;-59
2022/07/21 14:13:06;;;;;;;;;11.00;11.00;;;;;35.78;25.32;98971.59;6094048;28;96965;-58
2022/07/21 14:16:10;;;;;;;;;13.00;13.00;;;;;35.82;25.72;98964.03;6094239;28;97811;-60
2022/07/21 14:19:15;;;;;;;;;12.20;12.20;;;;;35.77;26.34;98961.59;6094028;28;100046;-60